sensor_id;sensor_type;location;lat;lon;timestamp;pressure;altitude;pressure_sealevel;temperature;humidity
75008;BME280;63554;48.940;12.050;2023-08-07T00:02:12;96791.66;;;10.53;100.00
75008;BME280;63554;48.940;12.050;2023-08-07T00:06:15;96782.97;;;10.51;100.00
75008;BME280;63554;48.940;12.050;2023-08-07T00:10:17;96785.66;;;10.51;100.00
75008;BME280;63554;48.940;12.050;2023-08-07T00:14:20;96789.84;;;10.46;100.00
75008;BME280;63554;48.940;12.050;2023-08-07T00:18:24;96780.13;;;10.45;100.00
75008;BME280;63554;48.940;12.050;2023-08-07T00:22:27;96782.81;;;10.45;100.00
75008;BME280;63554;48.940;12.050;2023-08-07T00:26:30;96787.88;;;10.42;100.00
75008;BME280;63554;48.940;12.050;2023-08-07T00:30:33;96783.53;;;10.41;100.00
75008;BME280;63554;48.940;12.050;2023-08-07T00:34:37;96776.09;;;10.36;100.00
75008;BME280;63554;48.940;12.050;2023-08-07T00:38:40;96778.78;;;10.36;100.00
75008;BME280;63554;48.940;12.050;2023-08-07T00:42:43;96775.72;;;10.33;100.00
75008;BME280;63554;48.940;12.050;2023-08-07T00:46:46;96768.28;;;10.28;100.00
75008;BME280;63554;48.940;12.050;2023-08-07T00:50:51;96777.22;;;10.28;100.00
75008;BME280;63554;48.940;12.050;2023-08-07T00:54:54;96777.94;;;10.24;100.00
75008;BME280;63554;48.940;12.050;2023-08-07T00:58:57;96774.16;;;10.25;100.00
75008;BME280;63554;48.940;12.050;2023-08-07T01:03:01;96779.44;;;10.20;100.00
75008;BME280;63554;48.940;12.050;2023-08-07T01:07:06;96778.00;;;10.17;100.00
75008;BME280;63554;48.940;12.050;2023-08-07T01:11:20;96786.38;;;10.16;100.00
75008;BME280;63554;48.940;12.050;2023-08-07T01:15:29;96774.97;;;10.14;100.00
75008;BME280;63554;48.940;12.050;2023-08-07T01:19:34;96772.50;;;10.12;100.00
75008;BME280;63554;48.940;12.050;2023-08-07T01:23:38;96768.00;;;10.06;100.00
75008;BME280;63554;48.940;12.050;2023-08-07T01:27:44;96774.00;;;10.08;100.00
75008;BME280;63554;48.940;12.050;2023-08-07T01:31:49;96779.63;;;10.06;100.00
75008;BME280;63554;48.940;12.050;2023-08-07T01:35:55;96772.81;;;10.04;100.00
75008;BME280;63554;48.940;12.050;2023-08-07T01:40:02;96764.13;;;10.02;100.00
75008;BME280;63554;48.940;12.050;2023-08-07T01:44:05;96773.28;;;10.01;100.00
75008;BME280;63554;48.940;12.050;2023-08-07T01:48:08;96769.97;;;9.99;100.00
75008;BME280;63554;48.940;12.050;2023-08-07T01:52:11;96776.19;;;9.99;100.00
75008;BME280;63554;48.940;12.050;2023-08-07T01:56:16;96789.72;;;9.99;100.00
75008;BME280;63554;48.940;12.050;2023-08-07T02:00:19;96783.03;;;10.02;100.00
75008;BME280;63554;48.940;12.050;2023-08-07T02:04:22;96795.03;;;10.06;100.00
75008;BME280;63554;48.940;12.050;2023-08-07T02:08:24;96781.31;;;10.07;100.00
75008;BME280;63554;48.940;12.050;2023-08-07T02:12:28;96777.97;;;10.05;100.00
75008;BME280;63554;48.940;12.050;2023-08-07T02:16:33;96784.22;;;10.06;100.00
75008;BME280;63554;48.940;12.050;2023-08-07T02:20:36;96785.41;;;10.10;100.00
75008;BME280;63554;48.940;12.050;2023-08-07T02:24:38;96795.16;;;10.11;100.00
75008;BME280;63554;48.940;12.050;2023-08-07T02:28:42;96802.94;;;10.07;100.00
75008;BME280;63554;48.940;12.050;2023-08-07T02:32:45;96803.28;;;10.11;100.00
75008;BME280;63554;48.940;12.050;2023-08-07T02:36:48;96805.00;;;10.05;100.00
75008;BME280;63554;48.940;12.050;2023-08-07T02:40:51;96805.84;;;10.06;100.00
75008;BME280;63554;48.940;12.050;2023-08-07T02:44:55;96799.75;;;10.10;100.00
75008;BME280;63554;48.940;12.050;2023-08-07T02:48:58;96800.56;;;10.11;100.00
75008;BME280;63554;48.940;12.050;2023-08-07T02:53:01;96805.16;;;10.10;100.00
75008;BME280;63554;48.940;12.050;2023-08-07T02:57:04;96811.16;;;10.13;100.00
75008;BME280;63554;48.940;12.050;2023-08-07T03:01:08;96808.69;;;10.11;100.00
75008;BME280;63554;48.940;12.050;2023-08-07T03:05:13;96823.84;;;10.12;100.00
75008;BME280;63554;48.940;12.050;2023-08-07T03:09:15;96819.75;;;10.09;100.00
75008;BME280;63554;48.940;12.050;2023-08-07T03:13:18;96826.41;;;10.07;100.00
75008;BME280;63554;48.940;12.050;2023-08-07T03:17:23;96835.81;;;10.04;100.00
75008;BME280;63554;48.940;12.050;2023-08-07T03:21:25;96845.81;;;10.04;100.00
75008;BME280;63554;48.940;12.050;2023-08-07T03:25:28;96848.25;;;10.05;100.00
75008;BME280;63554;48.940;12.050;2023-08-07T03:29:31;96847.94;;;10.02;100.00
75008;BME280;63554;48.940;12.050;2023-08-07T03:33:35;96848.16;;;10.00;100.00
75008;BME280;63554;48.940;12.050;2023-08-07T03:37:37;96853.56;;;10.00;100.00
75008;BME280;63554;48.940;12.050;2023-08-07T03:41:43;96867.06;;;10.00;100.00
75008;BME280;63554;48.940;12.050;2023-08-07T03:45:47;96865.41;;;9.99;100.00
75008;BME280;63554;48.940;12.050;2023-08-07T03:49:51;96878.91;;;9.99;100.00
75008;BME280;63554;48.940;12.050;2023-08-07T03:53:55;96883.72;;;9.97;100.00
75008;BME280;63554;48.940;12.050;2023-08-07T03:57:58;96895.63;;;9.96;100.00
75008;BME280;63554;48.940;12.050;2023-08-07T04:02:00;96898.91;;;9.98;100.00
75008;BME280;63554;48.940;12.050;2023-08-07T04:06:04;96909.72;;;9.98;100.00
75008;BME280;63554;48.940;12.050;2023-08-07T04:10:08;96907.69;;;9.94;100.00
75008;BME280;63554;48.940;12.050;2023-08-07T04:14:11;96916.63;;;9.94;100.00
75008;BME280;63554;48.940;12.050;2023-08-07T04:18:13;96924.75;;;9.94;100.00
75008;BME280;63554;48.940;12.050;2023-08-07T04:22:18;96923.09;;;9.93;100.00
75008;BME280;63554;48.940;12.050;2023-08-07T04:26:20;96931.19;;;9.93;100.00
75008;BME280;63554;48.940;12.050;2023-08-07T04:30:23;96936.22;;;9.89;100.00
75008;BME280;63554;48.940;12.050;2023-08-07T04:34:26;96936.69;;;9.86;100.00
75008;BME280;63554;48.940;12.050;2023-08-07T04:38:30;96948.75;;;9.84;100.00
75008;BME280;63554;48.940;12.050;2023-08-07T04:42:32;96941.72;;;9.83;100.00
75008;BME280;63554;48.940;12.050;2023-08-07T04:46:35;96953.94;;;9.85;100.00
75008;BME280;63554;48.940;12.050;2023-08-07T04:50:38;96954.63;;;9.81;100.00
75008;BME280;63554;48.940;12.050;2023-08-07T04:54:42;96947.94;;;9.83;100.00
75008;BME280;63554;48.940;12.050;2023-08-07T04:58:45;96971.22;;;9.84;100.00
75008;BME280;63554;48.940;12.050;2023-08-07T05:02:48;96956.25;;;9.82;100.00
75008;BME280;63554;48.940;12.050;2023-08-07T05:06:51;96961.66;;;9.82;100.00
75008;BME280;63554;48.940;12.050;2023-08-07T05:10:55;96967.06;;;9.82;100.00
75008;BME280;63554;48.940;12.050;2023-08-07T05:14:57;96966.47;;;9.80;100.00
75008;BME280;63554;48.940;12.050;2023-08-07T05:19:00;96975.78;;;9.84;100.00
75008;BME280;63554;48.940;12.050;2023-08-07T05:23:03;96977.06;;;9.81;100.00
75008;BME280;63554;48.940;12.050;2023-08-07T05:27:08;96982.47;;;9.81;100.00
75008;BME280;63554;48.940;12.050;2023-08-07T05:31:11;96991.41;;;9.82;100.00
75008;BME280;63554;48.940;12.050;2023-08-07T05:35:13;96998.91;;;9.80;100.00
75008;BME280;63554;48.940;12.050;2023-08-07T05:39:16;97000.78;;;9.79;100.00
75008;BME280;63554;48.940;12.050;2023-08-07T05:43:20;97006.19;;;9.79;100.00
75008;BME280;63554;48.940;12.050;2023-08-07T05:47:23;97001.25;;;9.76;100.00
75008;BME280;63554;48.940;12.050;2023-08-07T05:51:26;97007.91;;;9.74;100.00
75008;BME280;63554;48.940;12.050;2023-08-07T05:55:28;97014.75;;;9.76;100.00
75008;BME280;63554;48.940;12.050;2023-08-07T05:59:32;97021.41;;;9.74;100.00
75008;BME280;63554;48.940;12.050;2023-08-07T06:03:36;97020.81;;;9.72;100.00
75008;BME280;63554;48.940;12.050;2023-08-07T06:07:39;97028.31;;;9.69;100.00
75008;BME280;63554;48.940;12.050;2023-08-07T06:11:42;97033.72;;;9.69;100.00
75008;BME280;63554;48.940;12.050;2023-08-07T06:15:46;97036.19;;;9.71;100.00
75008;BME280;63554;48.940;12.050;2023-08-07T06:19:49;97045.59;;;9.68;100.00
75008;BME280;63554;48.940;12.050;2023-08-07T06:23:51;97049.94;;;9.69;100.00
75008;BME280;63554;48.940;12.050;2023-08-07T06:27:54;97055.72;;;9.73;100.00
75008;BME280;63554;48.940;12.050;2023-08-07T06:31:58;97061.56;;;9.70;100.00
75008;BME280;63554;48.940;12.050;2023-08-07T06:36:02;97054.50;;;9.69;100.00
75008;BME280;63554;48.940;12.050;2023-08-07T06:40:06;97058.84;;;9.70;100.00
75008;BME280;63554;48.940;12.050;2023-08-07T06:44:09;97071.75;;;9.68;100.00
75008;BME280;63554;48.940;12.050;2023-08-07T06:48:13;97074.25;;;9.69;100.00
75008;BME280;63554;48.940;12.050;2023-08-07T06:52:15;97070.72;;;9.69;100.00
75008;BME280;63554;48.940;12.050;2023-08-07T06:56:18;97075.91;;;9.70;100.00
75008;BME280;63554;48.940;12.050;2023-08-07T07:00:21;97076.72;;;9.71;100.00
75008;BME280;63554;48.940;12.050;2023-08-07T07:04:25;97085.22;;;9.75;100.00
75008;BME280;63554;48.940;12.050;2023-08-07T07:08:29;97080.03;;;9.73;100.00
75008;BME280;63554;48.940;12.050;2023-08-07T07:12:32;97087.34;;;9.73;100.00
75008;BME280;63554;48.940;12.050;2023-08-07T07:16:35;97088.75;;;9.75;100.00
75008;BME280;63554;48.940;12.050;2023-08-07T07:20:40;97086.88;;;9.76;100.00
75008;BME280;63554;48.940;12.050;2023-08-07T07:24:43;97098.53;;;9.76;100.00
75008;BME280;63554;48.940;12.050;2023-08-07T07:28:46;97102.25;;;9.75;100.00
75008;BME280;63554;48.940;12.050;2023-08-07T07:32:49;97106.78;;;9.81;100.00
75008;BME280;63554;48.940;12.050;2023-08-07T07:36:53;97115.97;;;9.80;100.00
75008;BME280;63554;48.940;12.050;2023-08-07T07:40:57;97122.78;;;9.83;100.00
75008;BME280;63554;48.940;12.050;2023-08-07T07:44:59;97117.81;;;9.80;100.00
75008;BME280;63554;48.940;12.050;2023-08-07T07:49:03;97129.63;;;9.85;100.00
75008;BME280;63554;48.940;12.050;2023-08-07T07:53:07;97129.41;;;9.87;100.00
75008;BME280;63554;48.940;12.050;2023-08-07T07:57:10;97140.38;;;9.92;100.00
75008;BME280;63554;48.940;12.050;2023-08-07T08:01:13;97144.13;;;9.91;100.00
75008;BME280;63554;48.940;12.050;2023-08-07T08:05:16;97157.63;;;9.91;100.00
75008;BME280;63554;48.940;12.050;2023-08-07T08:09:20;97158.09;;;9.88;100.00
75008;BME280;63554;48.940;12.050;2023-08-07T08:13:23;97163.03;;;9.91;100.00
75008;BME280;63554;48.940;12.050;2023-08-07T08:17:27;97161.78;;;9.94;100.00
75008;BME280;63554;48.940;12.050;2023-08-07T08:21:30;97168.63;;;9.96;100.00
75008;BME280;63554;48.940;12.050;2023-08-07T08:25:35;97175.06;;;9.95;100.00
75008;BME280;63554;48.940;12.050;2023-08-07T08:29:38;97180.81;;;10.05;100.00
75008;BME280;63554;48.940;12.050;2023-08-07T08:33:41;97181.44;;;10.07;100.00
75008;BME280;63554;48.940;12.050;2023-08-07T08:37:44;97194.28;;;10.12;100.00
75008;BME280;63554;48.940;12.050;2023-08-07T08:41:49;97184.09;;;10.14;100.00
75008;BME280;63554;48.940;12.050;2023-08-07T08:45:53;97202.34;;;10.19;100.00
75008;BME280;63554;48.940;12.050;2023-08-07T08:50:00;97206.72;;;10.20;100.00
75008;BME280;63554;48.940;12.050;2023-08-07T08:54:05;97217.53;;;10.20;100.00
75008;BME280;63554;48.940;12.050;2023-08-07T08:58:10;97213.34;;;10.24;100.00
75008;BME280;63554;48.940;12.050;2023-08-07T09:02:13;97229.78;;;10.22;100.00
75008;BME280;63554;48.940;12.050;2023-08-07T09:06:16;97229.78;;;10.22;100.00
75008;BME280;63554;48.940;12.050;2023-08-07T09:10:19;97233.28;;;10.23;100.00
75008;BME280;63554;48.940;12.050;2023-08-07T09:14:26;97259.91;;;10.26;100.00
75008;BME280;63554;48.940;12.050;2023-08-07T09:18:31;97250.97;;;10.25;100.00
75008;BME280;63554;48.940;12.050;2023-08-07T09:22:34;97253.22;;;10.28;100.00
75008;BME280;63554;48.940;12.050;2023-08-07T09:26:38;97258.84;;;10.27;100.00
75008;BME280;63554;48.940;12.050;2023-08-07T09:30:46;97259.31;;;10.24;100.00
75008;BME280;63554;48.940;12.050;2023-08-07T09:34:49;97244.97;;;10.23;100.00
75008;BME280;63554;48.940;12.050;2023-08-07T09:38:52;97268.25;;;10.24;100.00
75008;BME280;63554;48.940;12.050;2023-08-07T09:42:55;97261.97;;;10.31;100.00
75008;BME280;63554;48.940;12.050;2023-08-07T09:46:59;97269.00;;;10.38;100.00
75008;BME280;63554;48.940;12.050;2023-08-07T09:51:02;97276.91;;;10.40;100.00
75008;BME280;63554;48.940;12.050;2023-08-07T09:55:05;97269.31;;;10.48;100.00
75008;BME280;63554;48.940;12.050;2023-08-07T09:59:09;97274.91;;;10.54;100.00
75008;BME280;63554;48.940;12.050;2023-08-07T10:03:13;97284.03;;;10.59;100.00
75008;BME280;63554;48.940;12.050;2023-08-07T10:07:16;97286.50;;;10.61;100.00
75008;BME280;63554;48.940;12.050;2023-08-07T10:11:19;97277.03;;;10.70;100.00
75008;BME280;63554;48.940;12.050;2023-08-07T10:15:23;97289.31;;;10.73;100.00
75008;BME280;63554;48.940;12.050;2023-08-07T10:19:27;97283.19;;;10.84;100.00
75008;BME280;63554;48.940;12.050;2023-08-07T10:23:31;97293.13;;;10.90;100.00
75008;BME280;63554;48.940;12.050;2023-08-07T10:27:38;97293.88;;;10.97;100.00
75008;BME280;63554;48.940;12.050;2023-08-07T10:31:43;97295.06;;;11.01;98.87
75008;BME280;63554;48.940;12.050;2023-08-07T10:35:48;97287.94;;;11.07;97.74
75008;BME280;63554;48.940;12.050;2023-08-07T10:40:01;97291.41;;;11.14;96.56
75008;BME280;63554;48.940;12.050;2023-08-07T10:44:05;97311.56;;;11.18;95.89
75008;BME280;63554;48.940;12.050;2023-08-07T10:48:10;97307.34;;;11.22;95.56
75008;BME280;63554;48.940;12.050;2023-08-07T10:52:15;97305.19;;;11.31;95.26
75008;BME280;63554;48.940;12.050;2023-08-07T10:56:19;97307.00;;;11.37;95.46
75008;BME280;63554;48.940;12.050;2023-08-07T11:00:31;97314.88;;;11.57;96.59
75008;BME280;63554;48.940;12.050;2023-08-07T11:04:35;97306.22;;;11.48;96.95
75008;BME280;63554;48.940;12.050;2023-08-07T11:08:40;97302.03;;;11.53;96.16
75008;BME280;63554;48.940;12.050;2023-08-07T11:12:43;97306.97;;;11.74;95.43
75008;BME280;63554;48.940;12.050;2023-08-07T11:16:47;97303.41;;;11.74;94.89
75008;BME280;63554;48.940;12.050;2023-08-07T11:20:52;97306.06;;;11.80;95.78
75008;BME280;63554;48.940;12.050;2023-08-07T11:24:56;97303.66;;;11.91;93.34
75008;BME280;63554;48.940;12.050;2023-08-07T11:28:59;97313.72;;;11.83;94.06
75008;BME280;63554;48.940;12.050;2023-08-07T11:33:03;97311.81;;;11.72;94.14
75008;BME280;63554;48.940;12.050;2023-08-07T11:37:06;97315.53;;;11.90;96.36
75008;BME280;63554;48.940;12.050;2023-08-07T11:41:12;97311.97;;;12.07;93.80
75008;BME280;63554;48.940;12.050;2023-08-07T11:45:15;97314.13;;;12.17;91.77
75008;BME280;63554;48.940;12.050;2023-08-07T11:49:18;97313.88;;;12.19;88.92
75008;BME280;63554;48.940;12.050;2023-08-07T11:53:23;97322.59;;;12.09;88.64
75008;BME280;63554;48.940;12.050;2023-08-07T11:57:27;97312.38;;;12.23;90.13
75008;BME280;63554;48.940;12.050;2023-08-07T12:01:37;97321.34;;;12.23;87.72
75008;BME280;63554;48.940;12.050;2023-08-07T12:05:40;97328.19;;;12.26;87.10
75008;BME280;63554;48.940;12.050;2023-08-07T12:09:43;97330.13;;;12.37;86.70
75008;BME280;63554;48.940;12.050;2023-08-07T12:13:47;97324.53;;;12.62;86.35
75008;BME280;63554;48.940;12.050;2023-08-07T12:18:00;97329.25;;;12.67;85.26
75008;BME280;63554;48.940;12.050;2023-08-07T12:22:06;97333.50;;;12.86;85.87
75008;BME280;63554;48.940;12.050;2023-08-07T12:26:09;97332.56;;;12.81;83.27
75008;BME280;63554;48.940;12.050;2023-08-07T12:30:15;97342.84;;;12.79;81.90
75008;BME280;63554;48.940;12.050;2023-08-07T12:34:18;97340.47;;;12.71;82.95
75008;BME280;63554;48.940;12.050;2023-08-07T12:38:23;97339.31;;;12.90;83.47
75008;BME280;63554;48.940;12.050;2023-08-07T12:42:26;97333.75;;;13.09;82.99
75008;BME280;63554;48.940;12.050;2023-08-07T12:46:30;97335.53;;;13.26;82.72
75008;BME280;63554;48.940;12.050;2023-08-07T12:50:34;97340.13;;;13.26;82.27
75008;BME280;63554;48.940;12.050;2023-08-07T12:54:37;97334.94;;;13.24;82.78
75008;BME280;63554;48.940;12.050;2023-08-07T12:58:39;97357.03;;;13.28;80.52
75008;BME280;63554;48.940;12.050;2023-08-07T13:02:45;97341.34;;;13.42;80.19
75008;BME280;63554;48.940;12.050;2023-08-07T13:06:49;97340.25;;;13.55;78.99
75008;BME280;63554;48.940;12.050;2023-08-07T13:10:51;97341.44;;;13.47;79.46
75008;BME280;63554;48.940;12.050;2023-08-07T13:14:55;97349.59;;;13.47;78.25
75008;BME280;63554;48.940;12.050;2023-08-07T13:18:59;97346.63;;;13.60;80.08
75008;BME280;63554;48.940;12.050;2023-08-07T13:23:06;97358.81;;;13.58;78.86
75008;BME280;63554;48.940;12.050;2023-08-07T13:27:08;97362.13;;;13.48;79.33
75008;BME280;63554;48.940;12.050;2023-08-07T13:31:11;97364.50;;;13.33;79.80
75008;BME280;63554;48.940;12.050;2023-08-07T13:35:15;97370.50;;;13.35;78.35
75008;BME280;63554;48.940;12.050;2023-08-07T13:39:18;97377.03;;;13.34;79.08
75008;BME280;63554;48.940;12.050;2023-08-07T13:43:21;97375.47;;;13.61;78.21
75008;BME280;63554;48.940;12.050;2023-08-07T13:47:24;97378.03;;;13.92;76.41
75008;BME280;63554;48.940;12.050;2023-08-07T13:51:28;97383.63;;;14.14;77.00
75008;BME280;63554;48.940;12.050;2023-08-07T13:55:31;97376.41;;;14.19;75.77
75008;BME280;63554;48.940;12.050;2023-08-07T13:59:34;97383.41;;;14.15;75.30
75008;BME280;63554;48.940;12.050;2023-08-07T14:03:37;97387.53;;;14.18;75.46
75008;BME280;63554;48.940;12.050;2023-08-07T14:07:41;97388.72;;;14.10;75.65
75008;BME280;63554;48.940;12.050;2023-08-07T14:11:44;97410.44;;;13.70;76.16
75008;BME280;63554;48.940;12.050;2023-08-07T14:15:46;97422.44;;;13.57;80.08
75008;BME280;63554;48.940;12.050;2023-08-07T14:19:49;97439.06;;;13.96;76.85
75008;BME280;63554;48.940;12.050;2023-08-07T14:23:54;97428.88;;;13.91;75.72
75008;BME280;63554;48.940;12.050;2023-08-07T14:27:57;97426.66;;;13.88;75.69
75008;BME280;63554;48.940;12.050;2023-08-07T14:32:00;97449.13;;;13.72;73.28
75008;BME280;63554;48.940;12.050;2023-08-07T14:36:04;97444.41;;;13.55;75.28
75008;BME280;63554;48.940;12.050;2023-08-07T14:40:09;97452.56;;;13.32;75.47
75008;BME280;63554;48.940;12.050;2023-08-07T14:44:11;97460.44;;;13.21;76.76
75008;BME280;63554;48.940;12.050;2023-08-07T14:48:15;97473.44;;;13.19;78.02
75008;BME280;63554;48.940;12.050;2023-08-07T14:52:18;97469.94;;;13.00;80.63
75008;BME280;63554;48.940;12.050;2023-08-07T14:56:22;97468.50;;;12.86;82.33
75008;BME280;63554;48.940;12.050;2023-08-07T15:00:25;97481.50;;;12.84;82.79
75008;BME280;63554;48.940;12.050;2023-08-07T15:04:28;97484.75;;;12.74;82.71
75008;BME280;63554;48.940;12.050;2023-08-07T15:08:30;97497.97;;;12.71;85.93
75008;BME280;63554;48.940;12.050;2023-08-07T15:12:35;97506.59;;;12.49;87.45
75008;BME280;63554;48.940;12.050;2023-08-07T15:16:37;97504.03;;;12.36;90.30
75008;BME280;63554;48.940;12.050;2023-08-07T15:20:40;97514.38;;;12.27;90.17
75008;BME280;63554;48.940;12.050;2023-08-07T15:24:43;97520.56;;;12.16;90.74
75008;BME280;63554;48.940;12.050;2023-08-07T15:28:48;97528.41;;;12.05;91.04
75008;BME280;63554;48.940;12.050;2023-08-07T15:32:51;97521.00;;;11.94;91.49
75008;BME280;63554;48.940;12.050;2023-08-07T15:36:53;97522.97;;;11.80;92.27
75008;BME280;63554;48.940;12.050;2023-08-07T15:40:57;97527.31;;;11.63;93.34
75008;BME280;63554;48.940;12.050;2023-08-07T15:45:01;97526.69;;;11.61;94.78
75008;BME280;63554;48.940;12.050;2023-08-07T15:49:05;97518.25;;;11.51;94.46
75008;BME280;63554;48.940;12.050;2023-08-07T15:53:08;97531.53;;;11.52;95.93
75008;BME280;63554;48.940;12.050;2023-08-07T15:57:11;97523.78;;;11.62;96.97
75008;BME280;63554;48.940;12.050;2023-08-07T16:01:16;97530.44;;;11.60;94.05
75008;BME280;63554;48.940;12.050;2023-08-07T16:05:19;97526.47;;;11.62;94.20
75008;BME280;63554;48.940;12.050;2023-08-07T16:09:22;97524.31;;;11.71;94.37
75008;BME280;63554;48.940;12.050;2023-08-07T16:13:25;97527.44;;;11.68;93.19
75008;BME280;63554;48.940;12.050;2023-08-07T16:17:30;97526.41;;;11.69;93.30
75008;BME280;63554;48.940;12.050;2023-08-07T16:21:33;97524.84;;;11.80;92.60
75008;BME280;63554;48.940;12.050;2023-08-07T16:25:36;97525.59;;;11.87;91.03
75008;BME280;63554;48.940;12.050;2023-08-07T16:29:39;97527.03;;;11.96;90.57
75008;BME280;63554;48.940;12.050;2023-08-07T16:33:43;97529.94;;;11.95;90.87
75008;BME280;63554;48.940;12.050;2023-08-07T16:37:45;97522.63;;;11.95;90.62
75008;BME280;63554;48.940;12.050;2023-08-07T16:41:48;97526.81;;;11.98;90.43
75008;BME280;63554;48.940;12.050;2023-08-07T16:45:51;97526.41;;;11.94;91.41
75008;BME280;63554;48.940;12.050;2023-08-07T16:49:55;97520.59;;;11.91;92.55
75008;BME280;63554;48.940;12.050;2023-08-07T16:54:00;97535.84;;;11.85;93.14
75008;BME280;63554;48.940;12.050;2023-08-07T16:58:03;97514.25;;;11.78;94.25
75008;BME280;63554;48.940;12.050;2023-08-07T17:02:06;97533.03;;;11.73;92.52
75008;BME280;63554;48.940;12.050;2023-08-07T17:06:10;97524.69;;;11.75;93.32
75008;BME280;63554;48.940;12.050;2023-08-07T17:10:14;97522.81;;;11.75;92.48
75008;BME280;63554;48.940;12.050;2023-08-07T17:14:17;97524.84;;;11.80;91.39
75008;BME280;63554;48.940;12.050;2023-08-07T17:18:20;97518.16;;;11.82;91.25
75008;BME280;63554;48.940;12.050;2023-08-07T17:22:24;97515.84;;;11.86;90.99
75008;BME280;63554;48.940;12.050;2023-08-07T17:26:27;97512.84;;;11.94;90.29
75008;BME280;63554;48.940;12.050;2023-08-07T17:30:31;97506.69;;;12.05;89.87
75008;BME280;63554;48.940;12.050;2023-08-07T17:34:34;97514.59;;;12.07;89.09
75008;BME280;63554;48.940;12.050;2023-08-07T17:38:38;97518.16;;;12.07;89.27
75008;BME280;63554;48.940;12.050;2023-08-07T17:42:40;97511.66;;;12.09;88.67
75008;BME280;63554;48.940;12.050;2023-08-07T17:46:43;97517.06;;;12.09;87.62
75008;BME280;63554;48.940;12.050;2023-08-07T17:50:46;97524.53;;;12.13;87.14
75008;BME280;63554;48.940;12.050;2023-08-07T17:54:51;97528.09;;;12.14;85.00
75008;BME280;63554;48.940;12.050;2023-08-07T17:58:54;97530.59;;;12.15;86.23
75008;BME280;63554;48.940;12.050;2023-08-07T18:02:56;97528.75;;;12.09;85.59
75008;BME280;63554;48.940;12.050;2023-08-07T18:06:59;97523.09;;;12.11;85.25
75008;BME280;63554;48.940;12.050;2023-08-07T18:11:03;97526.41;;;12.13;85.19
75008;BME280;63554;48.940;12.050;2023-08-07T18:15:07;97525.81;;;12.11;85.36
75008;BME280;63554;48.940;12.050;2023-08-07T18:19:09;97531.03;;;12.12;85.83
75008;BME280;63554;48.940;12.050;2023-08-07T18:23:13;97536.66;;;12.11;86.37
75008;BME280;63554;48.940;12.050;2023-08-07T18:27:17;97543.81;;;12.05;86.62
75008;BME280;63554;48.940;12.050;2023-08-07T18:31:20;97546.75;;;12.03;86.68
75008;BME280;63554;48.940;12.050;2023-08-07T18:35:26;97546.81;;;11.97;87.13
75008;BME280;63554;48.940;12.050;2023-08-07T18:39:28;97543.94;;;11.92;86.96
75008;BME280;63554;48.940;12.050;2023-08-07T18:43:33;97551.69;;;11.88;88.20
75008;BME280;63554;48.940;12.050;2023-08-07T18:47:36;97554.66;;;11.80;88.58
75008;BME280;63554;48.940;12.050;2023-08-07T18:51:38;97556.84;;;11.71;89.04
75008;BME280;63554;48.940;12.050;2023-08-07T18:55:41;97568.34;;;11.66;89.04
75008;BME280;63554;48.940;12.050;2023-08-07T18:59:46;97570.06;;;11.61;89.80
75008;BME280;63554;48.940;12.050;2023-08-07T19:03:48;97571.16;;;11.53;90.33
75008;BME280;63554;48.940;12.050;2023-08-07T19:07:51;97566.63;;;11.47;90.80
75008;BME280;63554;48.940;12.050;2023-08-07T19:11:54;97560.41;;;11.40;90.81
75008;BME280;63554;48.940;12.050;2023-08-07T19:15:58;97566.72;;;11.34;91.22
75008;BME280;63554;48.940;12.050;2023-08-07T19:20:01;97567.75;;;11.33;92.40
75008;BME280;63554;48.940;12.050;2023-08-07T19:24:04;97569.69;;;11.25;92.50
75008;BME280;63554;48.940;12.050;2023-08-07T19:28:07;97571.81;;;11.23;92.79
75008;BME280;63554;48.940;12.050;2023-08-07T19:32:11;97575.81;;;11.14;93.26
75008;BME280;63554;48.940;12.050;2023-08-07T19:36:15;97567.13;;;11.05;93.69
75008;BME280;63554;48.940;12.050;2023-08-07T19:40:18;97570.53;;;10.94;94.38
75008;BME280;63554;48.940;12.050;2023-08-07T19:44:25;97566.78;;;10.88;94.81
75008;BME280;63554;48.940;12.050;2023-08-07T19:48:29;97573.06;;;10.82;95.21
75008;BME280;63554;48.940;12.050;2023-08-07T19:52:32;97575.19;;;10.74;95.92
75008;BME280;63554;48.940;12.050;2023-08-07T19:56:35;97575.84;;;10.69;96.54
75008;BME280;63554;48.940;12.050;2023-08-07T20:00:38;97579.41;;;10.63;96.90
75008;BME280;63554;48.940;12.050;2023-08-07T20:04:42;97579.22;;;10.58;97.58
75008;BME280;63554;48.940;12.050;2023-08-07T20:08:44;97583.78;;;10.57;98.10
75008;BME280;63554;48.940;12.050;2023-08-07T20:12:47;97584.44;;;10.53;98.54
75008;BME280;63554;48.940;12.050;2023-08-07T20:16:50;97577.56;;;10.50;98.67
75008;BME280;63554;48.940;12.050;2023-08-07T20:20:54;97577.16;;;10.46;98.72
75008;BME280;63554;48.940;12.050;2023-08-07T20:24:57;97575.31;;;10.40;98.83
75008;BME280;63554;48.940;12.050;2023-08-07T20:29:00;97579.94;;;10.33;98.58
75008;BME280;63554;48.940;12.050;2023-08-07T20:33:03;97583.03;;;10.30;98.84
75008;BME280;63554;48.940;12.050;2023-08-07T20:37:07;97582.19;;;10.23;99.29
75008;BME280;63554;48.940;12.050;2023-08-07T20:41:10;97584.06;;;10.22;99.47
75008;BME280;63554;48.940;12.050;2023-08-07T20:45:13;97588.88;;;10.20;100.00
75008;BME280;63554;48.940;12.050;2023-08-07T20:49:15;97589.91;;;10.19;100.00
75008;BME280;63554;48.940;12.050;2023-08-07T20:53:20;97592.22;;;10.16;100.00
75008;BME280;63554;48.940;12.050;2023-08-07T20:57:23;97594.72;;;10.10;100.00
75008;BME280;63554;48.940;12.050;2023-08-07T21:01:27;97587.66;;;10.09;100.00
75008;BME280;63554;48.940;12.050;2023-08-07T21:05:29;97589.94;;;10.06;100.00
75008;BME280;63554;48.940;12.050;2023-08-07T21:09:33;97589.09;;;10.05;100.00